createdAt,value
2016-12-15T00:00:24.788Z,0
2016-12-15T00:01:34.803Z,0
2016-12-15T00:02:45.066Z,0
2016-12-15T00:03:55.031Z,0
2016-12-15T00:05:05.306Z,0
2016-12-15T00:06:15.588Z,0
2016-12-15T00:07:25.547Z,0
2016-12-15T00:08:35.818Z,0
2016-12-15T00:09:46.087Z,0
2016-12-15T00:10:56.059Z,0
2016-12-15T00:12:06.011Z,0
2016-12-15T00:13:16.302Z,0
2016-12-15T00:14:26.561Z,0
2016-12-15T00:15:36.832Z,0
2016-12-15T00:16:47.546Z,0
2016-12-15T00:17:57.847Z,0
2016-12-15T00:19:08.564Z,0
2016-12-15T00:20:18.535Z,0
2016-12-15T00:21:28.807Z,0
2016-12-15T00:22:39.067Z,0
2016-12-15T00:23:49.021Z,0
2016-12-15T00:24:58.369Z,0
2016-12-15T00:26:08.334Z,0
2016-12-15T00:27:18.599Z,0
2016-12-15T00:28:28.859Z,0
2016-12-15T00:29:39.163Z,0
2016-12-15T00:30:48.807Z,0
2016-12-15T00:31:58.446Z,0
2016-12-15T00:33:08.081Z,0
2016-12-15T00:34:18.055Z,0
2016-12-15T00:35:27.706Z,0
2016-12-15T00:36:37.661Z,0
2016-12-15T00:37:47.918Z,0
2016-12-15T00:38:58.190Z,0
2016-12-15T00:40:08.450Z,0
2016-12-15T00:41:18.433Z,0
2016-12-15T00:42:28.708Z,0
2016-12-15T00:43:39.023Z,0
2016-12-15T00:44:48.983Z,0
2016-12-15T00:45:58.938Z,0
2016-12-15T00:47:08.897Z,0
2016-12-15T00:48:18.859Z,0
2016-12-15T00:49:28.821Z,0
2016-12-15T00:50:38.769Z,0
2016-12-15T00:51:48.725Z,0
2016-12-15T00:52:59.017Z,0
2016-12-15T00:54:09.292Z,0
2016-12-15T00:55:19.579Z,0
2016-12-15T00:56:29.531Z,0
2016-12-15T00:57:39.812Z,0
2016-12-15T00:58:50.091Z,0
2016-12-15T01:00:00.360Z,0
2016-12-15T01:01:10.012Z,0
2016-12-15T01:02:20.296Z,0
2016-12-15T01:03:30.706Z,0
2016-12-15T01:04:40.971Z,0
2016-12-15T01:05:50.953Z,0
2016-12-15T01:07:00.908Z,0
2016-12-15T01:08:10.868Z,0
2016-12-15T01:09:20.222Z,0
2016-12-15T01:10:29.887Z,0
2016-12-15T01:11:39.842Z,0
2016-12-15T01:12:49.804Z,0
2016-12-15T01:14:00.073Z,0
2016-12-15T01:15:10.018Z,0
2016-12-15T01:16:20.284Z,0
2016-12-15T01:17:29.311Z,0
2016-12-15T01:18:38.655Z,0
2016-12-15T01:19:48.597Z,0
2016-12-15T01:20:58.550Z,0
2016-12-15T01:22:08.511Z,0
2016-12-15T01:23:18.792Z,0
2016-12-15T01:24:29.075Z,0
2016-12-15T01:25:39.343Z,0
2016-12-15T01:26:49.593Z,0
2016-12-15T01:27:59.558Z,0
2016-12-15T01:29:09.500Z,0
2016-12-15T01:30:19.452Z,0
2016-12-15T01:31:29.411Z,0
2016-12-15T01:32:39.677Z,0
2016-12-15T01:33:49.641Z,0
2016-12-15T01:34:59.596Z,0
2016-12-15T01:36:09.542Z,0
2016-12-15T01:37:19.494Z,0
2016-12-15T01:38:29.763Z,0
2016-12-15T01:39:40.038Z,0
2016-12-15T01:40:50.000Z,0
2016-12-15T01:41:59.337Z,0
2016-12-15T01:43:09.037Z,0
2016-12-15T01:44:18.377Z,0
2016-12-15T01:45:28.640Z,0
2016-12-15T01:46:38.905Z,0
2016-12-15T01:47:48.859Z,0
2016-12-15T01:48:59.123Z,0
2016-12-15T01:50:09.414Z,0
2016-12-15T01:51:19.069Z,0
2016-12-15T01:52:29.036Z,0
2016-12-15T01:53:39.332Z,0
2016-12-15T01:54:49.593Z,0
2016-12-15T01:55:59.868Z,0
2016-12-15T01:57:09.845Z,0
2016-12-15T01:58:20.111Z,0
2016-12-15T01:59:29.753Z,0
2016-12-15T02:00:40.022Z,0
2016-12-15T02:01:49.673Z,0
2016-12-15T02:02:59.311Z,0
2016-12-15T02:04:09.283Z,0
2016-12-15T02:05:19.554Z,0
2016-12-15T02:06:29.820Z,0
2016-12-15T02:07:40.089Z,0
2016-12-15T02:08:50.041Z,0
2016-12-15T02:10:00.291Z,0
2016-12-15T02:11:10.259Z,0
2016-12-15T02:12:20.527Z,0
2016-12-15T02:13:30.483Z,0
2016-12-15T02:14:40.444Z,0
2016-12-15T02:15:50.742Z,0
2016-12-15T02:17:00.704Z,0
2016-12-15T02:18:10.669Z,0
2016-12-15T02:19:20.940Z,0
2016-12-15T02:20:31.206Z,0
2016-12-15T02:21:41.465Z,0
2016-12-15T02:22:51.411Z,0
2016-12-15T02:24:01.667Z,0
2016-12-15T02:25:11.318Z,0
2016-12-15T02:26:21.280Z,0
2016-12-15T02:27:31.548Z,0
2016-12-15T02:28:41.510Z,0
2016-12-15T02:29:51.476Z,0
2016-12-15T02:31:01.154Z,0
2016-12-15T02:32:10.800Z,0
2016-12-15T02:33:20.761Z,0
2016-12-15T02:34:30.710Z,0
2016-12-15T02:35:40.663Z,0
2016-12-15T02:36:50.614Z,0
2016-12-15T02:38:00.886Z,0
2016-12-15T02:39:10.842Z,0
2016-12-15T02:40:20.790Z,0
2016-12-15T02:41:31.049Z,0
2016-12-15T02:42:41.390Z,0
2016-12-15T02:43:51.424Z,0
2016-12-15T02:45:01.910Z,0
2016-12-15T02:46:12.166Z,0
2016-12-15T02:47:22.118Z,0
2016-12-15T02:48:32.070Z,0
2016-12-15T02:49:41.920Z,0
2016-12-15T02:50:51.577Z,0
2016-12-15T02:52:52.518Z,0
2016-12-15T02:54:02.522Z,0
2016-12-15T02:55:12.787Z,0
2016-12-15T02:56:22.736Z,0
2016-12-15T02:57:31.762Z,0
2016-12-15T02:58:42.022Z,0
2016-12-15T02:59:52.288Z,0
2016-12-15T03:01:01.927Z,0
2016-12-15T03:02:12.199Z,0
2016-12-15T03:03:22.469Z,0
2016-12-15T03:04:32.732Z,0
2016-12-15T03:05:42.992Z,0
2016-12-15T03:06:53.255Z,0
2016-12-15T03:08:03.525Z,0
2016-12-15T03:09:13.477Z,0
2016-12-15T03:10:23.776Z,0
2016-12-15T03:11:34.044Z,0
2016-12-15T03:12:44.009Z,0
2016-12-15T03:13:54.268Z,0
2016-12-15T03:15:04.236Z,0
2016-12-15T03:16:14.188Z,0
2016-12-15T03:17:24.456Z,0
2016-12-15T03:18:34.727Z,0
2016-12-15T03:19:44.989Z,0
2016-12-15T03:20:55.255Z,0
2016-12-15T03:22:05.516Z,0
2016-12-15T03:23:15.478Z,0
2016-12-15T03:24:25.740Z,0
2016-12-15T03:25:35.990Z,0
2016-12-15T03:26:46.406Z,0
2016-12-15T03:27:56.691Z,0
2016-12-15T03:29:06.966Z,0
2016-12-15T03:30:17.236Z,0
2016-12-15T03:31:27.482Z,0
2016-12-15T03:32:37.440Z,0
2016-12-15T03:33:47.081Z,0
2016-12-15T03:34:57.027Z,0
2016-12-15T03:36:07.283Z,0
2016-12-15T03:37:17.231Z,0
2016-12-15T03:38:27.503Z,0
2016-12-15T03:39:37.766Z,0
2016-12-15T03:40:48.038Z,0
2016-12-15T03:41:58.298Z,0
2016-12-15T03:43:08.256Z,0
2016-12-15T03:44:18.204Z,0
2016-12-15T03:45:27.529Z,0
2016-12-15T03:46:37.792Z,0
2016-12-15T03:47:47.775Z,0
2016-12-15T03:48:58.038Z,0
2016-12-15T03:50:08.307Z,0
2016-12-15T03:51:18.579Z,0
2016-12-15T03:52:28.223Z,0
2016-12-15T03:53:38.496Z,0
2016-12-15T03:54:48.758Z,0
2016-12-15T03:55:58.716Z,0
2016-12-15T03:57:08.663Z,0
2016-12-15T03:58:18.624Z,0
2016-12-15T03:59:28.275Z,0
2016-12-15T04:00:38.534Z,0
2016-12-15T04:01:48.783Z,0
2016-12-15T04:02:58.896Z,0
2016-12-15T04:04:08.844Z,0
2016-12-15T04:05:19.106Z,0
2016-12-15T04:06:29.065Z,0
2016-12-15T04:07:39.109Z,0
2016-12-15T04:08:49.390Z,0
2016-12-15T04:09:59.231Z,0
2016-12-15T04:11:09.183Z,0
2016-12-15T04:12:19.135Z,0
2016-12-15T04:13:28.777Z,0
2016-12-15T04:14:39.039Z,0
2016-12-15T04:15:49.302Z,0
2016-12-15T04:16:59.573Z,0
2016-12-15T04:18:09.874Z,0
2016-12-15T04:19:19.846Z,0
2016-12-15T04:20:29.807Z,0
2016-12-15T04:21:39.767Z,0
2016-12-15T04:22:50.034Z,0
2016-12-15T04:23:59.989Z,0
2016-12-15T04:25:09.948Z,0
2016-12-15T04:26:19.599Z,0
2016-12-15T04:27:29.554Z,0
2016-12-15T04:28:39.509Z,0
2016-12-15T04:29:49.151Z,0
2016-12-15T04:30:59.426Z,0
2016-12-15T04:32:09.385Z,0
2016-12-15T04:33:19.651Z,0
2016-12-15T04:34:29.602Z,0
2016-12-15T04:35:39.865Z,0
2016-12-15T04:36:50.140Z,0
2016-12-15T04:38:00.099Z,0
2016-12-15T04:39:10.374Z,0
2016-12-15T04:40:20.629Z,0
2016-12-15T04:41:30.898Z,0
2016-12-15T04:42:40.540Z,0
2016-12-15T04:43:50.799Z,0
2016-12-15T04:45:01.061Z,0
2016-12-15T04:46:11.324Z,0
2016-12-15T04:47:21.583Z,0
2016-12-15T04:48:31.846Z,0
2016-12-15T04:49:42.124Z,0
2016-12-15T04:50:51.762Z,0
2016-12-15T04:52:01.724Z,0
2016-12-15T04:53:11.980Z,0
2016-12-15T04:54:22.245Z,0
2016-12-15T04:55:32.200Z,0
2016-12-15T04:56:42.184Z,0
2016-12-15T04:57:52.459Z,0
2016-12-15T04:59:02.719Z,0
2016-12-15T05:00:12.994Z,0
2016-12-15T05:01:22.945Z,0
2016-12-15T05:02:33.204Z,0
2016-12-15T05:03:43.461Z,0
2016-12-15T05:04:53.413Z,0
2016-12-15T05:06:03.387Z,0
2016-12-15T05:07:13.038Z,0
2016-12-15T05:08:23.297Z,0
2016-12-15T05:09:33.570Z,0
2016-12-15T05:10:43.527Z,0
2016-12-15T05:11:53.479Z,0
2016-12-15T05:13:03.441Z,0
2016-12-15T05:14:13.086Z,0
2016-12-15T05:15:22.727Z,0
2016-12-15T05:16:32.674Z,0
2016-12-15T05:17:42.629Z,0
2016-12-15T05:18:52.894Z,0
2016-12-15T05:20:03.163Z,0
2016-12-15T05:21:13.121Z,0
2016-12-15T05:22:23.387Z,0
2016-12-15T05:23:33.341Z,0
2016-12-15T05:24:43.313Z,0
2016-12-15T05:25:53.563Z,0
2016-12-15T05:27:03.822Z,0
2016-12-15T05:28:14.092Z,0
2016-12-15T05:29:24.090Z,0
2016-12-15T05:30:34.071Z,0
2016-12-15T05:31:44.340Z,0
2016-12-15T05:32:54.606Z,0
2016-12-15T05:34:04.574Z,0
2016-12-15T05:35:14.635Z,0
2016-12-15T05:36:24.903Z,0
2016-12-15T05:37:34.865Z,0
2016-12-15T05:38:45.143Z,0
2016-12-15T05:39:55.102Z,0
2016-12-15T05:41:05.159Z,0
2016-12-15T05:42:15.449Z,0
2016-12-15T05:43:25.399Z,0
2016-12-15T05:44:35.681Z,0
2016-12-15T05:45:45.662Z,0
2016-12-15T05:46:55.703Z,0
2016-12-15T05:48:05.982Z,0
2016-12-15T05:49:15.944Z,0
2016-12-15T05:50:25.905Z,0
2016-12-15T05:51:36.103Z,0
2016-12-15T05:52:45.870Z,0
2016-12-15T05:53:56.148Z,0
2016-12-15T05:55:05.806Z,0
2016-12-15T05:56:16.071Z,0
2016-12-15T05:57:26.389Z,0
2016-12-15T05:58:36.455Z,0
2016-12-15T05:59:46.721Z,0
2016-12-15T06:00:56.372Z,0
2016-12-15T06:02:06.628Z,0
2016-12-15T06:03:16.583Z,0
2016-12-15T06:04:26.980Z,0
2016-12-15T06:05:36.935Z,0
2016-12-15T06:06:46.603Z,0
2016-12-15T06:07:56.903Z,0
2016-12-15T06:09:07.165Z,0
2016-12-15T06:10:17.549Z,0
2016-12-15T06:11:27.495Z,0
2016-12-15T06:12:37.460Z,0
2016-12-15T06:13:47.428Z,0
2016-12-15T06:14:57.694Z,0
2016-12-15T06:16:07.751Z,0
2016-12-15T06:17:17.697Z,0
2016-12-15T06:18:27.966Z,0
2016-12-15T06:19:37.930Z,0
2016-12-15T06:20:48.209Z,0
2016-12-15T06:21:58.587Z,0
2016-12-15T06:23:08.257Z,0
2016-12-15T06:24:18.205Z,0
2016-12-15T06:25:28.483Z,0
2016-12-15T06:26:38.438Z,0
2016-12-15T06:27:48.813Z,0
2016-12-15T06:28:59.075Z,0
2016-12-15T06:30:09.062Z,0
2016-12-15T06:31:19.027Z,0
2016-12-15T06:32:28.994Z,0
2016-12-15T06:33:38.442Z,0
2016-12-15T06:34:48.703Z,0
2016-12-15T06:35:58.973Z,0
2016-12-15T06:37:09.222Z,0
2016-12-15T06:38:19.490Z,0
2016-12-15T06:39:29.867Z,0
2016-12-15T06:40:39.520Z,0
2016-12-15T06:41:49.478Z,0
2016-12-15T06:42:59.132Z,0
2016-12-15T06:44:09.087Z,0
2016-12-15T06:45:19.468Z,0
2016-12-15T06:46:29.426Z,0
2016-12-15T06:47:39.689Z,0
2016-12-15T06:48:49.960Z,0
2016-12-15T06:50:00.258Z,0
2016-12-15T06:51:10.540Z,0
2016-12-15T06:52:20.492Z,0
2016-12-15T06:53:30.437Z,0
2016-12-15T06:54:40.687Z,0
2016-12-15T06:55:50.968Z,4
2016-12-15T06:57:01.247Z,4
2016-12-15T06:58:11.230Z,4
2016-12-15T06:59:21.518Z,0
2016-12-15T07:00:31.488Z,0
2016-12-15T07:01:41.451Z,4
2016-12-15T07:02:51.473Z,4
2016-12-15T07:04:01.747Z,4
2016-12-15T07:05:12.020Z,4
2016-12-15T07:06:22.017Z,4
2016-12-15T07:07:31.380Z,4
2016-12-15T07:08:41.351Z,4
2016-12-15T07:09:51.667Z,4
2016-12-15T07:11:01.655Z,4
2016-12-15T07:12:11.654Z,8
2016-12-15T07:13:21.676Z,4
2016-12-15T07:14:31.373Z,8
2016-12-15T07:15:41.638Z,8
2016-12-15T07:16:51.609Z,8
2016-12-15T07:18:01.591Z,12
2016-12-15T07:19:11.863Z,12
2016-12-15T07:20:21.881Z,8
2016-12-15T07:21:32.176Z,12
2016-12-15T07:22:42.144Z,12
2016-12-15T07:23:52.416Z,12
2016-12-15T07:25:02.380Z,12
2016-12-15T07:26:12.348Z,12
2016-12-15T07:27:22.320Z,12
2016-12-15T07:28:32.278Z,16
2016-12-15T07:29:42.562Z,16
2016-12-15T07:30:52.598Z,12
2016-12-15T07:32:02.265Z,16
2016-12-15T07:33:12.221Z,20
2016-12-15T07:34:22.256Z,16
2016-12-15T07:35:32.533Z,20
2016-12-15T07:36:43.046Z,16
2016-12-15T07:37:53.328Z,20
2016-12-15T07:39:03.343Z,20
2016-12-15T07:40:13.340Z,20
2016-12-15T07:41:23.614Z,24
2016-12-15T07:42:33.914Z,24
2016-12-15T07:43:44.207Z,24
2016-12-15T07:44:54.501Z,28
2016-12-15T07:46:04.169Z,28
2016-12-15T07:47:13.830Z,24
2016-12-15T07:48:23.797Z,28
2016-12-15T07:49:33.808Z,32
2016-12-15T07:50:44.159Z,32
2016-12-15T07:51:54.191Z,32
2016-12-15T07:53:03.831Z,32
2016-12-15T07:54:13.795Z,36
2016-12-15T07:55:23.801Z,36
2016-12-15T07:56:34.099Z,36
2016-12-15T07:57:44.054Z,36
2016-12-15T07:58:54.325Z,36
2016-12-15T08:00:04.347Z,36
2016-12-15T08:01:14.401Z,36
2016-12-15T08:02:24.675Z,36
2016-12-15T08:03:34.675Z,40
2016-12-15T08:04:44.349Z,40
2016-12-15T08:05:54.041Z,40
2016-12-15T08:07:04.065Z,44
2016-12-15T08:08:14.023Z,44
2016-12-15T08:09:23.684Z,44
2016-12-15T08:10:33.997Z,48
2016-12-15T08:11:43.038Z,44
2016-12-15T08:12:53.029Z,48
2016-12-15T08:14:02.916Z,52
2016-12-15T08:15:12.872Z,56
2016-12-15T08:16:23.181Z,52
2016-12-15T08:17:33.137Z,56
2016-12-15T08:18:43.409Z,56
2016-12-15T08:19:53.387Z,60
2016-12-15T08:21:03.691Z,60
2016-12-15T08:22:13.976Z,64
2016-12-15T08:23:24.295Z,64
2016-12-15T08:24:34.587Z,68
2016-12-15T08:25:44.863Z,64
2016-12-15T08:26:54.821Z,68
2016-12-15T08:28:05.138Z,72
2016-12-15T08:29:15.099Z,72
2016-12-15T08:30:24.449Z,76
2016-12-15T08:31:34.418Z,76
2016-12-15T08:32:44.396Z,72
2016-12-15T08:33:54.697Z,76
2016-12-15T08:35:04.370Z,72
2016-12-15T08:36:14.034Z,76
2016-12-15T08:37:24.023Z,76
2016-12-15T08:38:34.012Z,84
2016-12-15T08:39:44.288Z,84
2016-12-15T08:40:53.954Z,84
2016-12-15T08:42:03.923Z,92
2016-12-15T08:43:13.266Z,92
2016-12-15T08:44:22.925Z,92
2016-12-15T08:45:33.203Z,92
2016-12-15T08:46:42.867Z,92
2016-12-15T08:47:53.135Z,92
2016-12-15T08:49:03.091Z,96
2016-12-15T08:50:13.407Z,96
2016-12-15T08:51:23.708Z,92
2016-12-15T08:52:34.019Z,96
2016-12-15T08:53:43.968Z,100
2016-12-15T08:54:54.237Z,100
2016-12-15T08:56:03.901Z,100
2016-12-15T08:57:14.172Z,104
2016-12-15T08:58:24.134Z,108
2016-12-15T08:59:34.419Z,108
2016-12-15T09:00:44.385Z,116
2016-12-15T09:01:54.658Z,116
2016-12-15T09:03:04.311Z,120
2016-12-15T09:04:13.658Z,124
2016-12-15T09:05:23.610Z,128
2016-12-15T09:06:32.967Z,132
2016-12-15T09:07:42.913Z,132
2016-12-15T09:08:52.888Z,132
2016-12-15T09:10:02.850Z,132
2016-12-15T09:11:12.544Z,132
2016-12-15T09:12:22.846Z,136
2016-12-15T09:13:32.525Z,144
2016-12-15T09:14:42.536Z,148
2016-12-15T09:15:52.575Z,148
2016-12-15T09:17:02.632Z,148
2016-12-15T09:18:12.022Z,140
2016-12-15T09:19:22.354Z,144
2016-12-15T09:20:32.619Z,148
2016-12-15T09:21:42.939Z,156
2016-12-15T09:22:53.228Z,148
2016-12-15T09:24:03.230Z,156
2016-12-15T09:25:12.927Z,160
2016-12-15T09:26:23.129Z,168
2016-12-15T09:27:33.426Z,172
2016-12-15T09:28:43.722Z,184
2016-12-15T09:29:54.004Z,184
2016-12-15T09:31:04.302Z,184
2016-12-15T09:32:14.268Z,180
2016-12-15T09:33:24.278Z,176
2016-12-15T09:34:34.252Z,184
2016-12-15T09:35:44.534Z,196
2016-12-15T09:36:54.191Z,200
2016-12-15T09:38:04.168Z,196
2016-12-15T09:39:14.207Z,192
2016-12-15T09:40:24.205Z,192
2016-12-15T09:41:33.575Z,188
2016-12-15T09:42:43.606Z,188
2016-12-15T09:43:53.885Z,192
2016-12-15T09:45:04.179Z,192
2016-12-15T09:46:14.599Z,200
2016-12-15T09:47:24.579Z,208
2016-12-15T09:48:34.559Z,208
2016-12-15T09:49:44.857Z,212
2016-12-15T09:50:54.534Z,220
2016-12-15T09:52:04.211Z,228
2016-12-15T09:53:13.869Z,220
2016-12-15T09:54:23.526Z,216
2016-12-15T09:55:33.507Z,216
2016-12-15T09:56:43.014Z,220
2016-12-15T09:57:53.327Z,228
2016-12-15T09:59:03.602Z,224
2016-12-15T10:00:13.879Z,224
2016-12-15T10:01:24.151Z,228
2016-12-15T10:02:34.157Z,228
2016-12-15T10:03:44.426Z,228
2016-12-15T10:04:54.711Z,220
2016-12-15T10:06:04.683Z,224
2016-12-15T10:07:14.662Z,224
2016-12-15T10:08:24.709Z,224
2016-12-15T10:09:34.992Z,220
2016-12-15T10:10:45.721Z,212
2016-12-15T10:11:55.380Z,212
2016-12-15T10:13:05.381Z,204
2016-12-15T10:14:15.376Z,208
2016-12-15T10:15:25.108Z,220
2016-12-15T10:16:34.794Z,216
2016-12-15T10:17:45.140Z,224
2016-12-15T10:18:55.162Z,232
2016-12-15T10:20:04.968Z,224
2016-12-15T10:21:14.628Z,220
2016-12-15T10:22:24.601Z,220
2016-12-15T10:23:34.577Z,220
2016-12-15T10:24:44.868Z,224
2016-12-15T10:25:55.149Z,220
2016-12-15T10:27:05.112Z,216
2016-12-15T10:28:15.083Z,220
2016-12-15T10:29:24.746Z,220
2016-12-15T10:30:34.925Z,220
2016-12-15T10:31:45.201Z,224
2016-12-15T10:32:54.897Z,224
2016-12-15T10:34:04.557Z,232
2016-12-15T10:35:14.832Z,244
2016-12-15T10:36:24.801Z,248
2016-12-15T10:37:34.765Z,236
2016-12-15T10:38:44.409Z,240
2016-12-15T10:39:54.683Z,248
2016-12-15T10:41:04.951Z,252
2016-12-15T10:42:14.612Z,248
2016-12-15T10:43:24.948Z,248
2016-12-15T10:44:34.920Z,244
2016-12-15T10:45:44.593Z,236
2016-12-15T10:46:54.252Z,236
2016-12-15T10:48:04.250Z,236
2016-12-15T10:49:14.244Z,240
2016-12-15T10:50:24.547Z,244
2016-12-15T10:51:34.530Z,244
2016-12-15T10:52:44.528Z,244
2016-12-15T10:53:54.810Z,240
2016-12-15T10:55:05.135Z,248
2016-12-15T10:56:15.436Z,244
2016-12-15T10:57:25.748Z,232
2016-12-15T10:58:36.069Z,244
2016-12-15T10:59:45.439Z,240
2016-12-15T11:00:55.472Z,236
2016-12-15T11:02:04.811Z,232
2016-12-15T11:03:15.104Z,228
2016-12-15T11:04:24.473Z,232
2016-12-15T11:05:34.161Z,228
2016-12-15T11:06:44.196Z,240
2016-12-15T11:07:54.483Z,252
2016-12-15T11:09:04.791Z,240
2016-12-15T11:10:14.781Z,236
2016-12-15T11:11:24.163Z,236
2016-12-15T11:12:33.823Z,224
2016-12-15T11:13:43.800Z,220
2016-12-15T11:14:54.089Z,236
2016-12-15T11:16:04.105Z,236
2016-12-15T11:17:14.419Z,236
2016-12-15T11:18:24.781Z,232
2016-12-15T11:19:34.128Z,240
2016-12-15T11:20:44.115Z,240
2016-12-15T11:21:54.121Z,244
2016-12-15T11:23:04.399Z,248
2016-12-15T11:24:14.358Z,236
2016-12-15T11:25:24.655Z,232
2016-12-15T11:26:34.944Z,224
2016-12-15T11:27:44.907Z,216
2016-12-15T11:28:54.844Z,220
2016-12-15T11:30:04.816Z,248
2016-12-15T11:31:14.811Z,256
2016-12-15T11:32:25.121Z,220
2016-12-15T11:33:35.460Z,216
2016-12-15T11:34:45.146Z,212
2016-12-15T11:35:55.136Z,212
2016-12-15T11:37:05.101Z,204
2016-12-15T11:38:15.082Z,204
2016-12-15T11:39:24.730Z,196
2016-12-15T11:40:35.043Z,188
2016-12-15T11:41:45.071Z,188
2016-12-15T11:42:54.747Z,204
2016-12-15T11:44:05.060Z,220
2016-12-15T11:45:14.713Z,216
2016-12-15T11:46:25.013Z,200
2016-12-15T11:47:35.331Z,196
2016-12-15T11:48:45.622Z,192
2016-12-15T11:49:55.970Z,184
2016-12-15T11:51:05.978Z,176
2016-12-15T11:52:16.246Z,176
2016-12-15T11:53:26.518Z,176
2016-12-15T11:54:36.499Z,176
2016-12-15T11:55:46.797Z,180
2016-12-15T11:56:57.328Z,176
2016-12-15T11:58:07.599Z,168
2016-12-15T11:59:17.292Z,160
2016-12-15T12:00:27.256Z,160
2016-12-15T12:01:37.228Z,164
2016-12-15T12:02:47.208Z,164
2016-12-15T12:03:56.866Z,164
2016-12-15T12:05:07.176Z,172
2016-12-15T12:06:16.875Z,176
2016-12-15T12:07:27.185Z,184
2016-12-15T12:08:37.470Z,192
2016-12-15T12:09:47.452Z,188
2016-12-15T12:10:57.844Z,188
2016-12-15T12:12:07.562Z,188
2016-12-15T12:13:17.872Z,184
2016-12-15T12:14:28.200Z,184
2016-12-15T12:15:38.184Z,180
2016-12-15T12:16:48.437Z,180
2016-12-15T12:17:58.709Z,176
2016-12-15T12:19:08.994Z,176
2016-12-15T12:20:19.289Z,172
2016-12-15T12:21:29.573Z,184
2016-12-15T12:22:39.535Z,180
2016-12-15T12:23:49.518Z,168
2016-12-15T12:24:59.803Z,164
2016-12-15T12:26:09.484Z,160
2016-12-15T12:27:19.444Z,164
2016-12-15T12:28:29.408Z,164
2016-12-15T12:29:39.376Z,160
2016-12-15T12:30:49.655Z,164
2016-12-15T12:31:59.325Z,160
2016-12-15T12:33:09.313Z,156
2016-12-15T12:34:19.607Z,152
2016-12-15T12:35:29.869Z,148
2016-12-15T12:36:39.537Z,144
2016-12-15T12:37:49.511Z,148
2016-12-15T12:38:59.481Z,144
2016-12-15T12:40:09.766Z,136
2016-12-15T12:41:19.737Z,136
2016-12-15T12:42:29.719Z,128
2016-12-15T12:43:40.018Z,128
2016-12-15T12:44:49.898Z,124
2016-12-15T12:46:00.256Z,120
2016-12-15T12:47:10.611Z,120
2016-12-15T12:48:20.281Z,116
2016-12-15T12:49:30.572Z,120
2016-12-15T12:50:41.002Z,120
2016-12-15T12:51:50.964Z,116
2016-12-15T12:53:01.252Z,120
2016-12-15T12:54:11.564Z,116
2016-12-15T12:55:22.064Z,108
2016-12-15T12:56:31.794Z,108
2016-12-15T12:57:41.811Z,108
2016-12-15T12:58:51.494Z,104
2016-12-15T13:00:01.814Z,100
2016-12-15T13:01:12.329Z,104
2016-12-15T13:02:22.320Z,104
2016-12-15T13:03:32.598Z,100
2016-12-15T13:04:42.579Z,100
2016-12-15T13:05:52.546Z,100
2016-12-15T13:07:02.276Z,104
2016-12-15T13:08:12.576Z,100
2016-12-15T13:09:22.853Z,100
2016-12-15T13:10:32.530Z,96
2016-12-15T13:11:42.886Z,100
2016-12-15T13:12:52.885Z,96
2016-12-15T13:14:03.017Z,96
2016-12-15T13:15:13.324Z,96
2016-12-15T13:16:22.994Z,92
2016-12-15T13:17:33.298Z,96
2016-12-15T13:18:43.297Z,92
2016-12-15T13:19:53.581Z,92
2016-12-15T13:21:03.871Z,96
2016-12-15T13:22:13.530Z,96
2016-12-15T13:23:23.830Z,96
2016-12-15T13:24:33.843Z,92
2016-12-15T13:25:43.865Z,96
2016-12-15T13:26:53.834Z,92
2016-12-15T13:28:03.791Z,92
2016-12-15T13:29:13.777Z,84
2016-12-15T13:30:24.051Z,84
2016-12-15T13:31:34.023Z,84
2016-12-15T13:32:44.022Z,88
2016-12-15T13:33:53.981Z,84
2016-12-15T13:35:03.961Z,84
2016-12-15T13:36:14.243Z,80
2016-12-15T13:37:24.228Z,80
2016-12-15T13:38:33.876Z,76
2016-12-15T13:39:43.844Z,76
2016-12-15T13:40:53.491Z,76
2016-12-15T13:42:03.772Z,72
2016-12-15T13:43:14.083Z,68
2016-12-15T13:44:24.355Z,72
2016-12-15T13:45:34.732Z,72
2016-12-15T13:46:44.848Z,68
2016-12-15T13:47:55.280Z,68
2016-12-15T13:49:05.645Z,68
2016-12-15T13:50:15.325Z,64
2016-12-15T13:51:25.584Z,60
2016-12-15T13:52:35.555Z,60
2016-12-15T13:53:45.213Z,60
2016-12-15T13:54:55.191Z,60
2016-12-15T13:56:05.178Z,56
2016-12-15T13:57:15.206Z,56
2016-12-15T13:58:25.190Z,52
2016-12-15T13:59:35.485Z,52
2016-12-15T14:00:45.303Z,52
2016-12-15T14:01:55.273Z,48
2016-12-15T14:03:05.274Z,48
2016-12-15T14:04:14.942Z,44
2016-12-15T14:05:25.145Z,44
2016-12-15T14:06:35.451Z,40
2016-12-15T14:07:45.751Z,40
2016-12-15T14:08:55.729Z,36
2016-12-15T14:10:06.029Z,36
2016-12-15T14:11:16.035Z,36
2016-12-15T14:12:26.420Z,36
2016-12-15T14:13:36.696Z,40
2016-12-15T14:14:46.661Z,36
2016-12-15T14:15:56.942Z,36
2016-12-15T14:17:07.249Z,36
2016-12-15T14:18:17.226Z,32
2016-12-15T14:19:27.521Z,32
2016-12-15T14:20:37.496Z,32
2016-12-15T14:21:47.790Z,32
2016-12-15T14:22:57.764Z,28
2016-12-15T14:24:08.043Z,32
2016-12-15T14:25:18.009Z,28
2016-12-15T14:26:27.985Z,24
2016-12-15T14:27:37.349Z,24
2016-12-15T14:28:47.637Z,24
2016-12-15T14:29:57.912Z,20
2016-12-15T14:31:07.902Z,24
2016-12-15T14:32:18.469Z,20
2016-12-15T14:33:28.766Z,20
2016-12-15T14:34:38.441Z,20
2016-12-15T14:35:48.081Z,20
2016-12-15T14:36:58.357Z,16
2016-12-15T14:38:08.632Z,16
2016-12-15T14:39:18.915Z,16
2016-12-15T14:40:29.205Z,16
2016-12-15T14:41:39.483Z,12
2016-12-15T14:42:49.432Z,16
2016-12-15T14:43:59.728Z,12
2016-12-15T14:45:09.705Z,12
2016-12-15T14:46:19.058Z,8
2016-12-15T14:47:29.337Z,8
2016-12-15T14:48:39.011Z,8
2016-12-15T14:49:49.304Z,8
2016-12-15T14:50:59.580Z,8
2016-12-15T14:52:09.862Z,4
2016-12-15T14:53:20.151Z,8
2016-12-15T14:54:30.115Z,8
2016-12-15T14:55:40.381Z,4
2016-12-15T14:56:50.051Z,4
2016-12-15T14:57:59.687Z,4
2016-12-15T14:59:09.651Z,4
2016-12-15T15:00:19.325Z,4
2016-12-15T15:01:29.606Z,4
2016-12-15T15:02:39.901Z,4
2016-12-15T15:03:49.568Z,4
2016-12-15T15:04:59.592Z,4
2016-12-15T15:06:09.590Z,0
2016-12-15T15:07:19.547Z,0
2016-12-15T15:08:29.507Z,4
2016-12-15T15:09:39.478Z,4
2016-12-15T15:10:49.459Z,0
2016-12-15T15:11:59.129Z,0
2016-12-15T15:13:09.432Z,0
2016-12-15T15:14:19.384Z,0
2016-12-15T15:15:29.051Z,0
2016-12-15T15:16:39.075Z,0
2016-12-15T15:17:49.345Z,0
2016-12-15T15:18:59.314Z,0
2016-12-15T15:20:09.854Z,0
2016-12-15T15:21:19.821Z,0
2016-12-15T15:22:29.777Z,0
2016-12-15T15:23:39.125Z,0
2016-12-15T15:24:48.773Z,0
2016-12-15T15:25:59.090Z,0
2016-12-15T15:27:09.381Z,0
2016-12-15T15:28:19.676Z,0
2016-12-15T15:29:29.976Z,0
2016-12-15T15:30:39.932Z,0
2016-12-15T15:31:49.893Z,0
2016-12-15T15:32:59.858Z,0
2016-12-15T15:34:10.149Z,0
2016-12-15T15:35:20.439Z,0
2016-12-15T15:36:30.418Z,0
2016-12-15T15:37:40.710Z,0
2016-12-15T15:38:50.681Z,0
2016-12-15T15:40:00.030Z,0
2016-12-15T15:41:09.993Z,0
2016-12-15T15:42:20.291Z,0
2016-12-15T15:43:29.957Z,0
2016-12-15T15:44:39.609Z,0
2016-12-15T15:45:49.896Z,0
2016-12-15T15:46:59.869Z,0
2016-12-15T15:48:09.555Z,0
2016-12-15T15:49:19.228Z,0
2016-12-15T15:50:29.519Z,0
2016-12-15T15:51:39.500Z,0
2016-12-15T15:52:49.769Z,0
2016-12-15T15:53:59.718Z,0
2016-12-15T15:55:09.382Z,0
2016-12-15T15:56:19.375Z,0
2016-12-15T15:57:29.340Z,0
2016-12-15T15:58:39.011Z,0
2016-12-15T15:59:48.994Z,0
2016-12-15T16:00:59.281Z,0
2016-12-15T16:02:09.587Z,0
2016-12-15T16:03:19.547Z,0
2016-12-15T16:04:29.821Z,0
2016-12-15T16:05:40.092Z,0
2016-12-15T16:06:49.747Z,0
2016-12-15T16:08:00.032Z,0
2016-12-15T16:09:10.297Z,0
2016-12-15T16:10:19.638Z,0
2016-12-15T16:11:29.622Z,0
2016-12-15T16:12:39.603Z,0
2016-12-15T16:13:49.888Z,0
2016-12-15T16:15:00.163Z,0
2016-12-15T16:16:10.131Z,0
2016-12-15T16:17:20.406Z,0
2016-12-15T16:18:30.697Z,0
2016-12-15T16:19:40.682Z,0
2016-12-15T16:20:50.956Z,0
2016-12-15T16:22:00.592Z,0
2016-12-15T16:23:10.881Z,0
2016-12-15T16:24:21.162Z,0
2016-12-15T16:25:31.440Z,0
2016-12-15T16:26:41.726Z,0
2016-12-15T16:27:52.012Z,0
2016-12-15T16:29:02.298Z,0
2016-12-15T16:30:11.948Z,0
2016-12-15T16:31:21.900Z,0
2016-12-15T16:32:31.521Z,0
2016-12-15T16:33:41.159Z,0
2016-12-15T16:34:51.431Z,0
2016-12-15T16:36:01.720Z,0
2016-12-15T16:37:11.993Z,0
2016-12-15T16:38:22.263Z,0
2016-12-15T16:39:32.228Z,0
2016-12-15T16:40:42.502Z,0
2016-12-15T16:41:52.785Z,0
2016-12-15T16:43:03.068Z,0
2016-12-15T16:44:13.350Z,0
2016-12-15T16:45:23.625Z,0
2016-12-15T16:46:33.920Z,0
2016-12-15T16:47:44.226Z,0
2016-12-15T16:48:54.201Z,0
2016-12-15T16:50:04.486Z,0